Stations météo

réclame
Mon MeteoGroup
Barcelona, Espagne (8180): Température de l'air & dewpoint: 18.10.2018 07:00:00 - 24.10.2018 07:00:00 (CEST)Barcelona, Espagne (8180): Vitesse du vent & gusts: 18.10.2018 07:00:00 - 24.10.2018 07:00:00 (CEST)Barcelona, Espagne (8180): Direction du vent: 18.10.2018 07:00:00 - 24.10.2018 07:00:00 (CEST)Barcelona, Espagne (8180): Quantités de précipitations: 18.10.2018 07:00:00 - 24.10.2018 07:00:00 (CEST)
Date & Time tt [°C] td [°C] ff [km/h] ff [knt] fx [km/h] fx [knt] dd rr [mm]
24.10.2018 07:00:00 - - - - - - - -
24.10.2018 06:00:00 17,3 9,5 5 3 11 6 WNW 0,0
24.10.2018 05:00:00 16,4 10,3 1 1 9 5 W 0,0
24.10.2018 04:00:00 16,4 10,3 1 1 13 7 WNW 0,0
24.10.2018 03:00:00 16,4 10,3 6 3 9 5 N 0,0
24.10.2018 02:00:00 17,1 10,2 4 2 10 5 WNW -
24.10.2018 01:00:00 17,1 10,0 3 2 15 8 WNW 0,0
24.10.2018 00:00:00 17,7 9,9 5 3 21 11 NNW 0,0
23.10.2018 23:00:00 17,6 10,7 3 1 9 5 NNW 0,0
23.10.2018 22:00:00 18,2 10,8 6 3 9 5 W 0,0
23.10.2018 21:00:00 18,6 11,7 7 4 10 6 W 0,0
23.10.2018 20:00:00 18,2 12,6 8 4 19 10 W -
23.10.2018 19:00:00 19,0 11,8 12 6 20 11 WSW 0,0
23.10.2018 18:00:00 19,8 11,8 16 9 23 12 SW 0,0
23.10.2018 17:00:00 19,0 12,7 19 10 23 12 SSW 0,0
23.10.2018 16:00:00 19,5 12,8 17 9 22 12 SSW 0,0
23.10.2018 15:00:00 20,8 12,0 12 6 18 10 S 0,0
23.10.2018 14:00:00 21,1 12,8 10 5 16 9 SSE -
23.10.2018 13:00:00 19,9 12,2 9 5 14 7 S 0,0
23.10.2018 12:00:00 19,6 10,9 3 2 18 10 SSW 0,0
23.10.2018 11:00:00 18,1 10,5 9 5 21 11 N 0,0
23.10.2018 10:00:00 16,7 11,0 9 5 22 12 N 0,0
23.10.2018 09:00:00 15,3 11,3 9 5 18 10 N 0,0
23.10.2018 08:00:00 14,5 12,4 7 4 18 10 N -
23.10.2018 07:00:00 15,3 13,0 7 4 16 9 NNW 0,0
23.10.2018 06:00:00 14,6 12,8 9 5 18 10 N 0,0
23.10.2018 05:00:00 15,9 14,6 4 2 6 3 E 0,0
23.10.2018 04:00:00 16,1 14,3 2 1 4 2 ENE 0,0
23.10.2018 03:00:00 16,1 14,5 4 2 6 3 ENE 0,0
23.10.2018 02:00:00 16,1 14,1 1 0 6 3 ENE -
23.10.2018 01:00:00 17,1 14,4 1 0 9 5 NNW 0,0
23.10.2018 00:00:00 17,5 14,8 7 4 12 6 W 0,0
22.10.2018 23:00:00 17,5 14,6 5 3 7 4 SW 0,0
22.10.2018 22:00:00 17,6 14,7 2 1 6 3 SW 0,0
22.10.2018 21:00:00 18,1 14,8 6 3 13 7 SE 0,0
22.10.2018 20:00:00 18,2 14,3 8 4 13 7 ESE -
22.10.2018 19:00:00 18,5 14,2 11 6 17 9 ESE 0,0
22.10.2018 18:00:00 19,3 15,0 13 7 19 10 E 0,0
22.10.2018 17:00:00 19,4 15,3 18 10 25 13 E 0,0
22.10.2018 16:00:00 20,4 14,5 18 10 24 13 E 0,0
22.10.2018 15:00:00 20,9 14,8 20 11 29 16 ESE 0,0
22.10.2018 14:00:00 21,1 14,7 18 10 27 15 ESE -
22.10.2018 13:00:00 21,0 13,7 19 10 26 14 E 0,0
22.10.2018 12:00:00 21,1 13,3 13 7 22 12 E 0,0
22.10.2018 11:00:00 20,1 11,8 13 7 23 12 N 0,0
22.10.2018 10:00:00 18,8 11,4 12 6 21 12 N 0,0
22.10.2018 09:00:00 17,7 13,2 10 5 16 8 N 0,0
22.10.2018 08:00:00 16,8 14,3 8 5 14 8 N -
22.10.2018 07:00:00 17,5 15,0 9 5 16 9 N 0,0
22.10.2018 06:00:00 17,2 14,7 10 5 22 12 N 0,0
22.10.2018 05:00:00 18,1 15,0 10 5 19 10 NNE 0,0
22.10.2018 04:00:00 18,7 15,4 5 3 8 5 N 0,0
22.10.2018 03:00:00 19,2 15,9 2 1 9 5 WNW 0,0
22.10.2018 02:00:00 19,4 15,9 6 4 9 5 ESE -
22.10.2018 01:00:00 19,7 15,6 1 1 18 10 W 0,0
22.10.2018 00:00:00 19,9 15,5 8 5 15 8 W 0,0
21.10.2018 23:00:00 19,9 15,8 10 5 16 9 W 0,0
21.10.2018 22:00:00 20,1 15,7 6 3 16 8 W 0,0
21.10.2018 21:00:00 20,1 15,9 10 6 23 12 W 0,0
21.10.2018 20:00:00 20,1 15,1 10 5 16 9 W -
21.10.2018 19:00:00 21,3 15,4 7 4 20 11 WSW 0,0
21.10.2018 18:00:00 22,1 14,2 11 6 24 13 WSW 0,0
21.10.2018 17:00:00 21,6 13,0 19 10 29 16 SW 0,0
21.10.2018 16:00:00 22,4 14,0 18 10 27 15 SW 0,0
21.10.2018 15:00:00 21,2 16,0 20 11 28 15 SSW 0,0
21.10.2018 14:00:00 22,4 13,7 16 9 26 14 SSW -
21.10.2018 13:00:00 21,4 17,0 10 5 16 9 S 0,0
21.10.2018 12:00:00 22,9 15,7 3 2 9 5 SE 0,0
21.10.2018 11:00:00 21,1 15,0 2 1 11 6 NNE 0,0
21.10.2018 10:00:00 18,1 14,4 4 2 10 5 N 0,0
21.10.2018 09:00:00 16,5 14,3 9 5 16 8 NNW 0,0
21.10.2018 08:00:00 16,0 14,0 12 6 16 8 N -
21.10.2018 07:00:00 16,2 14,2 11 6 13 7 N 0,0
21.10.2018 06:00:00 16,5 14,3 8 5 13 7 N 0,0
21.10.2018 05:00:00 17,1 14,7 8 4 14 8 N 0,0
21.10.2018 04:00:00 17,3 14,8 9 5 14 7 N 0,0
21.10.2018 03:00:00 17,5 15,3 8 5 13 7 N 0,0
21.10.2018 02:00:00 17,4 15,7 6 3 9 5 N -
21.10.2018 01:00:00 17,8 16,3 1 1 8 4 NE 0,0
21.10.2018 00:00:00 18,4 16,7 6 4 10 6 NNE 0,0
20.10.2018 23:00:00 18,7 17,0 5 3 13 7 NNE 0,0
20.10.2018 22:00:00 18,7 17,0 6 4 12 7 NE 0,0
20.10.2018 21:00:00 18,8 17,1 9 5 14 8 E 0,0
20.10.2018 20:00:00 18,9 17,0 9 5 13 7 E -
20.10.2018 19:00:00 19,3 17,1 8 5 15 8 ENE 0,0
20.10.2018 18:00:00 20,0 17,0 10 5 24 13 E 0,0
20.10.2018 17:00:00 20,3 17,3 14 8 25 14 E 0,0
20.10.2018 16:00:00 20,9 17,5 22 12 32 18 ESE 0,0
20.10.2018 15:00:00 21,0 17,0 26 14 30 16 ESE 0,0
20.10.2018 14:00:00 21,4 16,4 17 9 23 12 ESE -
20.10.2018 13:00:00 21,6 15,9 13 7 21 11 E 0,0
20.10.2018 12:00:00 21,1 15,6 15 8 20 11 ENE 0,0
20.10.2018 11:00:00 20,0 15,0 9 5 16 8 ENE 0,0
20.10.2018 10:00:00 19,4 13,8 7 4 16 9 NNE 0,0
20.10.2018 09:00:00 19,2 13,8 9 5 20 11 NNE 0,1
20.10.2018 08:00:00 18,8 13,9 10 6 22 12 NNE -
20.10.2018 07:00:00 18,8 13,2 11 6 18 10 NE 0,0
20.10.2018 06:00:00 17,9 14,8 10 5 17 9 N 0,0
20.10.2018 05:00:00 17,6 15,9 9 5 21 12 N 0,0
20.10.2018 04:00:00 17,5 16,0 8 5 23 12 NNE 1,4
20.10.2018 03:00:00 17,2 16,2 13 7 20 11 NNE 6,0
20.10.2018 02:00:00 17,5 16,5 14 8 22 12 W -
20.10.2018 01:00:00 18,4 16,9 11 6 16 9 WSW 1,0
20.10.2018 00:00:00 19,1 16,9 3 2 12 6 SW 0,3
19.10.2018 23:00:00 19,2 16,8 8 4 19 10 NNE 0,6
19.10.2018 22:00:00 19,6 17,0 13 7 19 10 E 0,4
19.10.2018 21:00:00 19,6 16,4 5 3 13 7 N 0,7
19.10.2018 20:00:00 - - - - - - - -
19.10.2018 19:00:00 20,2 16,8 11 6 25 13 NNE 1,3
19.10.2018 18:00:00 20,1 17,3 22 12 36 20 E 0,7
19.10.2018 17:00:00 20,9 16,9 27 14 35 19 E 0,0
19.10.2018 16:00:00 21,1 16,9 26 14 34 18 E 0,0
19.10.2018 15:00:00 21,2 16,8 29 16 39 21 E 0,0
19.10.2018 14:00:00 21,7 16,4 31 17 39 21 E -
19.10.2018 13:00:00 21,8 16,7 29 15 39 21 E 0,0
19.10.2018 12:00:00 21,4 16,4 28 15 36 19 E 0,0
19.10.2018 11:00:00 21,3 16,3 23 13 39 21 E 0,0
19.10.2018 10:00:00 20,9 15,4 24 13 43 23 ENE 0,0
19.10.2018 09:00:00 20,4 15,2 25 14 33 18 ENE 0,0
19.10.2018 08:00:00 - - 24 13 41 22 ENE -
19.10.2018 07:00:00 - - 20 11 36 19 ENE 0,0
19.10.2018 06:00:00 - - 19 10 37 20 ENE 0,0
19.10.2018 05:00:00 - - 20 11 46 25 NE 1,2
19.10.2018 04:00:00 - - 29 16 40 22 E 0,4
19.10.2018 03:00:00 - - 26 14 45 25 ENE 0,0
19.10.2018 02:00:00 - - 31 17 48 26 ENE -
19.10.2018 01:00:00 - - 19 10 51 28 ENE 0,0
19.10.2018 00:00:00 - - 31 17 48 26 ENE 0,0
18.10.2018 23:00:00 - - 29 16 43 23 ENE 0,0
18.10.2018 22:00:00 - - 16 8 30 16 ENE 0,0
18.10.2018 21:00:00 - - 19 11 34 19 ENE 0,0
18.10.2018 20:00:00 - - 19 11 39 21 ENE -
18.10.2018 19:00:00 - - 24 13 40 21 ENE 0,0
18.10.2018 18:00:00 - - 32 18 41 22 E 0,0
18.10.2018 17:00:00 - - 29 16 42 23 E 0,0
18.10.2018 16:00:00 - - 23 12 31 17 E 0,0
18.10.2018 15:00:00 - - 16 9 26 14 NE 0,0
18.10.2018 14:00:00 - - 14 8 34 18 NNE -
18.10.2018 13:00:00 - - 21 11 39 21 ENE 2,3
18.10.2018 12:00:00 - - 24 13 36 19 ENE 0,0
18.10.2018 11:00:00 - - 19 10 36 20 ENE 0,0
18.10.2018 10:00:00 - - 11 6 16 9 NNE 0,0
18.10.2018 09:00:00 - - 9 5 19 10 N 0,0
18.10.2018 08:00:00 17,2 14,3 9 5 16 9 N -
18.10.2018 07:00:00 17,4 14,5 7 4 13 7 N 0,0

tt = Température de l'air
td = dewpoint
ff = Vitesse du vent
fx = gusts
dd = Direction du vent
rr = Quantités de précipitations

stations d'obs. à proximité